Time;durP1;ratioP1;P1;durP2;ratioP2;P2;SDS_P1;SDS_P2;PMS_P1;PMS_P2;Temp;Humidity;BMP_temperature;BMP_pressure;BME280_temperature;BME280_humidity;BME280_pressure;Samples;Min_cycle;Max_cycle;Signal;HPM_P1;HPM_P2
2023/09/16 00:00:32;;;;;;;11.50;11.10;;;15.70;99.90;;;;;;6173677;23;20247;-81
2023/09/16 00:03:01;;;;;;;11.55;11.15;;;15.70;99.90;;;;;;6173794;23;20698;-81
2023/09/16 00:05:28;;;;;;;11.73;11.32;;;15.60;99.90;;;;;;6175220;23;20291;-81
2023/09/16 00:07:55;;;;;;;11.63;11.23;;;15.60;99.90;;;;;;6174530;23;20220;-81
2023/09/16 00:10:22;;;;;;;11.60;11.20;;;15.60;99.90;;;;;;6169067;23;20259;-81
2023/09/16 00:12:49;;;;;;;11.43;11.02;;;15.60;99.90;;;;;;6169526;23;20193;-81
2023/09/16 00:15:17;;;;;;;11.48;11.07;;;15.50;99.90;;;;;;6170574;23;20267;-80
2023/09/16 00:17:44;;;;;;;11.82;11.43;;;15.50;99.90;;;;;;6173154;23;20204;-81
2023/09/16 00:20:15;;;;;;;11.68;11.27;;;15.50;99.90;;;;;;6171837;23;20208;-81
2023/09/16 00:22:42;;;;;;;11.65;11.25;;;15.40;99.90;;;;;;6171225;23;20256;-81
2023/09/16 00:25:10;;;;;;;11.65;11.25;;;15.40;99.90;;;;;;6170403;23;20214;-80
2023/09/16 00:27:39;;;;;;;11.57;11.18;;;15.40;99.90;;;;;;6169465;23;20223;-80
2023/09/16 00:30:07;;;;;;;11.50;11.10;;;15.40;99.90;;;;;;6170059;23;20203;-81
2023/09/16 00:32:35;;;;;;;11.70;11.30;;;15.40;99.90;;;;;;6170055;23;20204;-82
2023/09/16 00:35:02;;;;;;;11.82;11.43;;;15.30;99.90;;;;;;6170769;23;20296;-81
2023/09/16 00:37:31;;;;;;;11.60;11.20;;;15.30;99.90;;;;;;6171177;23;20205;-81
2023/09/16 00:39:58;;;;;;;11.88;11.48;;;15.30;99.90;;;;;;6171922;23;20256;-80
2023/09/16 00:42:25;;;;;;;11.77;11.38;;;15.30;99.90;;;;;;6171936;23;20279;-81
2023/09/16 00:44:52;;;;;;;11.60;11.20;;;15.20;99.90;;;;;;6172655;23;20220;-81
2023/09/16 00:47:20;;;;;;;11.65;11.25;;;15.20;99.90;;;;;;6175305;23;20204;-81
2023/09/16 00:49:47;;;;;;;11.70;11.30;;;15.10;99.90;;;;;;6174458;23;20196;-81
2023/09/16 00:52:15;;;;;;;11.68;11.27;;;15.10;99.90;;;;;;6173879;23;20267;-81
2023/09/16 00:54:43;;;;;;;11.50;11.10;;;15.10;99.90;;;;;;6173819;23;20207;-81
2023/09/16 00:57:13;;;;;;;11.70;11.30;;;15.10;99.90;;;;;;6174508;23;20196;-81
2023/09/16 00:59:41;;;;;;;11.73;11.32;;;15.00;99.90;;;;;;6174056;23;20196;-81
2023/09/16 01:02:09;;;;;;;11.55;11.15;;;15.00;99.90;;;;;;6173385;23;20204;-81
2023/09/16 01:04:37;;;;;;;11.70;11.30;;;15.00;99.90;;;;;;6173491;23;20208;-81
2023/09/16 01:07:04;;;;;;;11.52;11.13;;;15.00;99.90;;;;;;6174321;23;20200;-81
2023/09/16 01:09:32;;;;;;;11.70;11.30;;;14.90;99.90;;;;;;6173951;23;20196;-81
2023/09/16 01:12:01;;;;;;;11.80;11.40;;;14.90;99.90;;;;;;6172846;23;20283;-81
2023/09/16 01:14:28;;;;;;;11.80;11.40;;;14.90;99.90;;;;;;6174106;23;20199;-81
2023/09/16 01:17:01;;;;;;;11.68;11.27;;;14.90;99.90;;;;;;6174406;23;20259;-81
2023/09/16 01:19:45;;;;;;;11.70;11.30;;;14.80;99.90;;;;;;6177045;23;20207;-81
2023/09/16 01:22:14;;;;;;;11.50;11.10;;;14.80;99.90;;;;;;6181165;23;20196;-81
2023/09/16 01:24:41;;;;;;;11.57;11.18;;;14.80;99.90;;;;;;6178748;23;20213;-81
2023/09/16 01:27:10;;;;;;;11.57;11.18;;;14.80;99.90;;;;;;6176391;23;20208;-81
2023/09/16 01:29:37;;;;;;;11.55;11.15;;;14.80;99.90;;;;;;6174535;23;20240;-81
2023/09/16 01:32:07;;;;;;;11.52;11.13;;;14.80;99.90;;;;;;6174018;23;20232;-81
2023/09/16 01:34:41;;;;;;;11.60;11.20;;;14.80;99.90;;;;;;6174559;23;20189;-81
2023/09/16 01:37:12;;;;;;;11.50;11.10;;;14.80;99.90;;;;;;6173632;23;20203;-81
2023/09/16 01:39:41;;;;;;;11.73;11.32;;;14.70;99.90;;;;;;6177681;23;20199;-82
2023/09/16 01:42:10;;;;;;;11.57;11.18;;;14.70;99.90;;;;;;6181300;23;20256;-81
2023/09/16 01:44:37;;;;;;;11.45;11.05;;;14.70;99.90;;;;;;6181914;23;20208;-81
2023/09/16 07:47:43;;;;;;;11.38;10.98;;;18.10;99.90;;;;;;6196182;22;20209;-81
2023/09/16 07:50:10;;;;;;;11.32;10.93;;;18.20;99.90;;;;;;6202726;23;20215;-81
2023/09/16 07:52:40;;;;;;;11.27;10.88;;;18.40;99.90;;;;;;6202864;23;20220;-81
2023/09/16 07:55:11;;;;;;;11.30;10.90;;;18.50;99.90;;;;;;6202692;23;20192;-81
2023/09/16 07:57:38;;;;;;;11.00;10.70;;;18.60;99.90;;;;;;6203288;23;21108;-80
2023/09/16 08:00:07;;;;;;;11.05;10.75;;;18.70;99.90;;;;;;6202305;23;20206;-81
2023/09/16 08:02:34;;;;;;;11.23;10.90;;;18.80;99.90;;;;;;6202579;23;20196;-81
2023/09/16 08:05:03;;;;;;;11.38;11.00;;;19.00;99.90;;;;;;6202921;23;20192;-80
2023/09/16 08:07:34;;;;;;;11.50;11.10;;;19.10;99.90;;;;;;6203216;23;20207;-80
2023/09/16 08:10:05;;;;;;;11.35;10.95;;;19.20;99.90;;;;;;6203593;23;20188;-81
2023/09/16 08:12:32;;;;;;;11.48;11.07;;;19.20;99.90;;;;;;6202882;23;20191;-82
2023/09/16 08:15:01;;;;;;;11.50;11.10;;;19.30;99.90;;;;;;6199375;23;20199;-79
2023/09/16 08:17:28;;;;;;;11.50;11.10;;;19.50;99.90;;;;;;6199359;23;20210;-80
2023/09/16 08:19:55;;;;;;;11.05;10.75;;;19.60;99.90;;;;;;6198568;23;20196;-79
2023/09/16 08:22:23;;;;;;;11.43;11.02;;;19.70;99.90;;;;;;6198405;23;20212;-80
2023/09/16 08:24:50;;;;;;;11.40;11.00;;;19.80;99.90;;;;;;6198824;23;20203;-80
2023/09/16 08:27:19;;;;;;;11.40;11.00;;;20.00;99.90;;;;;;6203648;23;20233;-80
2023/09/16 08:29:47;;;;;;;11.13;10.82;;;20.10;99.90;;;;;;6204437;23;20194;-81
2023/09/16 08:32:14;;;;;;;11.13;10.82;;;20.20;99.90;;;;;;6204141;23;20207;-80
2023/09/16 08:34:41;;;;;;;11.25;10.95;;;20.30;99.90;;;;;;6204824;23;20227;-81
2023/09/16 08:37:08;;;;;;;11.10;10.80;;;20.40;99.90;;;;;;6204527;23;20227;-80
2023/09/16 08:39:36;;;;;;;11.45;11.05;;;20.50;99.90;;;;;;6204644;23;20215;-80
2023/09/16 08:42:08;;;;;;;11.02;10.73;;;20.60;99.90;;;;;;6204345;23;20237;-81
2023/09/16 08:44:41;;;;;;;11.23;10.93;;;20.70;99.90;;;;;;6204842;23;20202;-81
2023/09/16 08:47:12;;;;;;;11.40;11.00;;;20.80;99.90;;;;;;6204770;23;20208;-81
2023/09/16 08:49:45;;;;;;;11.10;10.80;;;20.90;99.90;;;;;;6204220;23;20195;-80
2023/09/16 08:52:18;;;;;;;11.15;10.85;;;21.20;99.90;;;;;;6198249;23;20219;-79
2023/09/16 08:54:49;;;;;;;10.95;10.65;;;21.50;99.90;;;;;;6198929;23;20226;-79
2023/09/16 08:57:16;;;;;;;10.90;10.60;;;21.70;99.90;;;;;;6201674;23;20227;-80
2023/09/16 08:59:44;;;;;;;10.93;10.63;;;21.90;99.90;;;;;;6202992;23;20247;-80
2023/09/16 09:02:12;;;;;;;10.77;10.48;;;22.00;99.90;;;;;;6203080;23;20208;-81
2023/09/16 09:04:43;;;;;;;10.98;10.68;;;22.30;99.90;;;;;;6204195;23;20200;-80
2023/09/16 09:07:13;;;;;;;11.00;10.70;;;22.50;99.90;;;;;;6203121;23;20230;-80
2023/09/16 09:09:40;;;;;;;11.10;10.80;;;22.80;99.90;;;;;;6203226;23;20183;-81
2023/09/16 09:12:09;;;;;;;10.95;10.65;;;23.00;99.90;;;;;;6203046;23;20199;-81
2023/09/16 09:14:37;;;;;;;10.90;10.60;;;23.20;99.90;;;;;;6204239;23;20212;-81
2023/09/16 09:17:08;;;;;;;11.30;10.95;;;23.30;99.90;;;;;;6204265;23;20219;-81
2023/09/16 09:19:38;;;;;;;10.88;10.57;;;23.40;99.90;;;;;;6202946;23;20200;-81
2023/09/16 09:22:06;;;;;;;11.10;10.80;;;23.50;99.90;;;;;;6203084;23;20255;-82
2023/09/16 09:24:33;;;;;;;11.23;10.93;;;23.50;99.90;;;;;;6203560;23;20211;-81
2023/09/16 09:27:00;;;;;;;11.55;11.15;;;23.50;99.90;;;;;;6204088;23;20208;-81
2023/09/16 09:29:28;;;;;;;11.15;10.82;;;23.80;99.90;;;;;;6203694;23;20207;-81
2023/09/16 09:31:56;;;;;;;11.20;10.90;;;23.90;99.90;;;;;;6203970;23;20192;-80
2023/09/16 09:34:28;;;;;;;11.20;10.90;;;24.00;99.90;;;;;;6208245;23;20251;-81
2023/09/16 09:36:55;;;;;;;11.35;11.00;;;24.20;99.90;;;;;;6209721;23;20200;-81
2023/09/16 09:39:22;;;;;;;11.20;10.90;;;24.30;99.90;;;;;;6206943;23;20219;-81
2023/09/16 09:41:51;;;;;;;11.20;10.90;;;24.40;99.90;;;;;;6204919;23;20262;-80
2023/09/16 09:44:18;;;;;;;11.25;10.95;;;24.50;99.90;;;;;;6201700;23;20196;-81
2023/09/16 09:46:47;;;;;;;10.85;10.55;;;24.60;99.90;;;;;;6198715;23;20287;-81
2023/09/16 09:49:15;;;;;;;11.18;10.88;;;24.80;99.90;;;;;;6200050;23;20202;-81
2023/09/16 09:51:47;;;;;;;11.02;10.73;;;25.10;99.90;;;;;;6199292;23;20264;-81
2023/09/16 09:54:14;;;;;;;11.07;10.77;;;25.40;99.90;;;;;;6202393;23;20219;-81
2023/09/16 09:56:42;;;;;;;11.23;10.93;;;25.80;99.90;;;;;;6206052;23;20227;-81
2023/09/16 09:59:12;;;;;;;11.20;10.90;;;26.20;99.90;;;;;;6209699;23;20251;-80
2023/09/16 10:01:41;;;;;;;11.15;10.85;;;26.40;99.90;;;;;;6209883;23;20218;-79
2023/09/16 10:04:10;;;;;;;11.20;10.90;;;26.70;99.90;;;;;;6203699;23;20243;-80
2023/09/16 10:06:37;;;;;;;11.20;10.90;;;26.70;99.90;;;;;;6201872;23;20264;-80
2023/09/16 10:09:05;;;;;;;11.60;11.20;;;26.70;99.90;;;;;;6199831;23;20255;-80
2023/09/16 10:11:33;;;;;;;11.25;10.95;;;26.80;99.90;;;;;;6199562;23;20263;-80
2023/09/16 10:14:00;;;;;;;11.32;11.00;;;27.20;99.90;;;;;;6199180;23;20211;-80
2023/09/16 10:16:28;;;;;;;11.15;10.85;;;27.40;99.90;;;;;;6199160;23;20348;-80
2023/09/16 10:18:55;;;;;;;11.10;10.80;;;27.50;99.90;;;;;;6199982;23;20250;-79
2023/09/16 10:21:24;;;;;;;11.13;10.82;;;27.70;99.90;;;;;;6202822;23;20199;-80
2023/09/16 10:23:52;;;;;;;11.20;10.90;;;27.60;99.90;;;;;;6204191;23;20254;-80
2023/09/16 10:26:20;;;;;;;11.10;10.80;;;27.70;99.90;;;;;;6204283;23;20226;-81
2023/09/16 10:28:49;;;;;;;10.90;10.60;;;27.90;99.90;;;;;;6204243;23;20208;-81
2023/09/16 10:31:17;;;;;;;11.20;10.90;;;28.00;99.90;;;;;;6203152;23;20203;-80
2023/09/16 10:33:46;;;;;;;11.48;11.18;;;27.80;99.90;;;;;;6204713;23;20231;-82
2023/09/16 10:36:15;;;;;;;11.63;11.23;;;27.90;99.90;;;;;;6204747;23;20208;-80
2023/09/16 10:38:45;;;;;;;11.60;11.20;;;28.10;99.90;;;;;;6203379;23;20262;-80
2023/09/16 10:41:15;;;;;;;11.23;10.93;;;28.30;99.90;;;;;;6203426;23;20242;-80
2023/09/16 10:43:42;;;;;;;11.40;11.10;;;28.30;99.90;;;;;;6202910;23;20207;-80
2023/09/16 10:46:10;;;;;;;11.50;11.10;;;28.50;99.90;;;;;;6202137;23;20215;-80
2023/09/16 10:48:37;;;;;;;11.18;10.88;;;28.90;99.90;;;;;;6202950;23;20223;-81
2023/09/16 10:51:11;;;;;;;11.52;11.13;;;28.90;99.90;;;;;;6201908;23;20207;-80
2023/09/16 10:53:40;;;;;;;11.40;11.00;;;28.70;99.90;;;;;;6202431;23;20282;-80
2023/09/16 10:56:16;;;;;;;11.32;11.02;;;28.70;99.90;;;;;;6203378;23;20298;-80
2023/09/16 10:58:48;;;;;;;11.57;11.18;;;29.10;99.90;;;;;;6202105;23;20234;-80
2023/09/16 11:01:22;;;;;;;11.30;11.00;;;29.40;99.90;;;;;;6201894;23;20215;-80
2023/09/16 11:03:59;;;;;;;11.43;11.13;;;29.50;99.90;;;;;;6202648;23;20227;-80
2023/09/16 11:06:27;;;;;;;11.32;11.02;;;29.60;99.90;;;;;;6201980;23;20208;-80
2023/09/16 11:08:54;;;;;;;11.30;11.00;;;29.90;99.90;;;;;;6202812;23;20220;-80
2023/09/16 11:11:23;;;;;;;11.40;11.10;;;30.10;99.90;;;;;;6202605;23;20251;-80
2023/09/16 11:13:50;;;;;;;11.30;11.00;;;30.10;99.90;;;;;;6203079;23;20270;-80
2023/09/16 11:16:17;;;;;;;11.15;10.85;;;29.90;99.90;;;;;;6203575;23;20223;-80
2023/09/16 11:18:49;;;;;;;11.15;10.85;;;29.80;99.90;;;;;;6213153;23;20203;-81
2023/09/16 11:21:17;;;;;;;11.20;10.90;;;29.90;99.90;;;;;;6210785;23;20196;-81
2023/09/16 11:23:45;;;;;;;11.18;10.88;;;30.00;99.90;;;;;;6203808;23;20222;-80
2023/09/16 11:26:18;;;;;;;11.10;10.80;;;29.90;99.90;;;;;;6202630;23;20207;-80
2023/09/16 11:28:46;;;;;;;11.00;10.70;;;30.00;99.90;;;;;;6202947;23;20239;-81
2023/09/16 11:31:14;;;;;;;10.93;10.63;;;30.20;99.90;;;;;;6202838;23;20279;-81
2023/09/16 11:33:41;;;;;;;11.00;10.70;;;30.40;99.90;;;;;;6202328;23;20198;-80
2023/09/16 11:36:12;;;;;;;10.77;10.48;;;30.60;99.90;;;;;;6201573;23;20192;-81
2023/09/16 11:38:39;;;;;;;10.88;10.57;;;30.60;99.90;;;;;;6202638;23;20255;-80
2023/09/16 11:41:11;;;;;;;11.00;10.70;;;30.50;99.90;;;;;;6202662;23;20208;-81
2023/09/16 11:43:38;;;;;;;11.00;10.70;;;30.40;99.90;;;;;;6204010;23;20345;-80
2023/09/16 11:46:08;;;;;;;10.88;10.57;;;30.30;99.90;;;;;;6203639;23;20219;-81
2023/09/16 11:48:53;;;;;;;10.98;10.68;;;30.30;99.90;;;;;;6203677;23;20196;-80
2023/09/16 11:51:22;;;;;;;11.20;10.90;;;30.40;99.90;;;;;;6204191;23;20199;-80
2023/09/16 11:53:51;;;;;;;10.95;10.65;;;30.50;99.90;;;;;;6206109;23;20199;-81
2023/09/16 11:56:19;;;;;;;10.90;10.60;;;30.80;99.90;;;;;;6214472;23;20214;-81
2023/09/16 11:58:47;;;;;;;11.02;10.73;;;31.00;99.90;;;;;;6210428;23;20196;-80
2023/09/16 12:01:24;;;;;;;11.00;10.70;;;31.20;99.90;;;;;;6204456;23;20223;-81
2023/09/16 12:03:52;;;;;;;11.05;10.75;;;31.40;99.90;;;;;;6214784;23;20202;-80
2023/09/16 12:06:21;;;;;;;11.07;10.77;;;31.60;99.90;;;;;;6205180;23;20203;-80
2023/09/16 12:08:49;;;;;;;11.05;10.75;;;31.80;99.90;;;;;;6204495;23;20207;-80
2023/09/16 12:11:16;;;;;;;11.25;10.95;;;31.90;99.90;;;;;;6205402;23;20207;-79
2023/09/16 12:13:43;;;;;;;11.10;10.80;;;32.10;99.90;;;;;;6203977;23;20263;-78
2023/09/16 12:16:11;;;;;;;11.07;10.77;;;32.20;99.90;;;;;;6196017;23;20211;-78
2023/09/16 12:18:40;;;;;;;10.90;10.60;;;32.10;99.90;;;;;;6196158;23;20278;-78
2023/09/16 12:21:08;;;;;;;10.70;10.40;;;32.00;99.90;;;;;;6195825;23;20200;-81
2023/09/16 12:23:36;;;;;;;11.00;10.70;;;31.90;99.90;;;;;;6195144;23;20242;-78
2023/09/16 12:26:04;;;;;;;10.73;10.43;;;31.90;99.90;;;;;;6197000;23;20287;-78
2023/09/16 12:28:32;;;;;;;10.90;10.60;;;32.10;99.90;;;;;;6196399;23;20216;-78
2023/09/16 12:30:59;;;;;;;11.10;10.80;;;32.50;99.90;;;;;;6195015;23;20214;-78
2023/09/16 12:33:42;;;;;;;10.80;10.50;;;32.70;99.90;;;;;;6195726;23;20198;-78
2023/09/16 12:36:14;;;;;;;11.00;10.70;;;32.50;99.90;;;;;;6195310;23;20258;-78
2023/09/16 12:38:42;;;;;;;10.75;10.45;;;32.10;99.90;;;;;;6196081;23;20192;-78
2023/09/16 12:41:10;;;;;;;10.80;10.50;;;32.00;99.90;;;;;;6196256;23;20188;-78
2023/09/16 12:43:37;;;;;;;10.63;10.32;;;32.00;99.90;;;;;;6199480;23;20317;-78
2023/09/16 12:46:06;;;;;;;10.95;10.65;;;32.10;99.90;;;;;;6198907;23;20249;-78
2023/09/16 12:48:33;;;;;;;10.85;10.55;;;32.30;99.90;;;;;;6199326;23;20184;-78
2023/09/16 12:51:03;;;;;;;10.98;10.68;;;32.70;99.90;;;;;;6199698;23;20223;-80
2023/09/16 12:53:31;;;;;;;10.90;10.60;;;33.00;99.90;;;;;;6195442;23;20302;-80
2023/09/16 12:55:58;;;;;;;10.90;10.60;;;33.00;99.90;;;;;;6197006;23;20218;-79
2023/09/16 12:58:25;;;;;;;10.75;10.45;;;33.20;99.90;;;;;;6196771;23;20199;-79
2023/09/16 13:00:52;;;;;;;10.90;10.60;;;33.20;99.90;;;;;;6196000;23;20234;-79
2023/09/16 13:03:22;;;;;;;10.90;10.60;;;33.00;99.90;;;;;;6194853;23;20200;-78
2023/09/16 13:05:53;;;;;;;10.60;10.30;;;32.50;99.90;;;;;;6195581;23;20259;-78
2023/09/16 13:08:24;;;;;;;10.90;10.60;;;32.60;99.90;;;;;;6195428;23;20212;-78
2023/09/16 13:10:54;;;;;;;10.82;10.52;;;33.00;99.90;;;;;;6196354;23;20191;-79
2023/09/16 13:13:22;;;;;;;10.90;10.60;;;33.40;99.90;;;;;;6195453;23;20208;-78
2023/09/16 13:15:50;;;;;;;10.90;10.60;;;33.70;99.90;;;;;;6195251;23;20211;-78
2023/09/16 13:18:18;;;;;;;11.10;10.80;;;33.50;99.90;;;;;;6195553;23;20196;-78
2023/09/16 13:20:46;;;;;;;11.20;10.90;;;33.20;99.90;;;;;;6195226;23;20215;-78
2023/09/16 13:23:24;;;;;;;10.95;10.65;;;33.10;99.90;;;;;;6195406;23;20254;-78
2023/09/16 13:25:54;;;;;;;10.90;10.60;;;33.20;99.90;;;;;;6195659;23;20199;-78
2023/09/16 13:28:23;;;;;;;10.75;10.45;;;33.50;99.90;;;;;;6195524;23;20229;-78
2023/09/16 13:30:54;;;;;;;10.77;10.48;;;33.60;99.90;;;;;;6196216;23;20248;-78
2023/09/16 13:33:42;;;;;;;10.70;10.40;;;33.90;99.90;;;;;;6195466;23;20215;-78
2023/09/16 13:36:09;;;;;;;10.85;10.55;;;34.30;99.90;;;;;;6195667;23;20291;-78
2023/09/16 13:38:36;;;;;;;10.82;10.52;;;34.30;99.90;;;;;;6196943;23;20251;-78
2023/09/16 13:41:05;;;;;;;11.00;10.70;;;34.70;99.90;;;;;;6198162;23;20204;-79
2023/09/16 13:43:35;;;;;;;10.85;10.55;;;35.20;99.90;;;;;;6197012;23;20294;-78
2023/09/16 19:48:54;;;;;;;10.90;10.60;;;21.20;99.90;;;;;;6173411;23;20208;-81
2023/09/16 19:51:21;;;;;;;10.60;10.30;;;21.10;99.90;;;;;;6173782;23;20208;-81
2023/09/16 19:53:48;;;;;;;10.70;10.40;;;21.00;99.90;;;;;;6175349;23;20316;-81
2023/09/16 19:56:15;;;;;;;10.70;10.40;;;20.90;99.90;;;;;;6174342;23;20224;-81
2023/09/16 19:58:42;;;;;;;10.60;10.30;;;20.90;99.90;;;;;;6174265;23;20219;-81
2023/09/16 20:01:10;;;;;;;10.48;10.18;;;20.80;99.90;;;;;;6174310;23;20212;-81
2023/09/16 20:03:37;;;;;;;10.77;10.48;;;20.80;99.90;;;;;;6175525;23;20200;-81
2023/09/16 20:06:07;;;;;;;10.70;10.40;;;20.70;99.90;;;;;;6175644;23;20255;-81
2023/09/16 20:08:34;;;;;;;11.07;10.77;;;20.60;99.90;;;;;;6175580;23;20222;-81
2023/09/16 20:11:02;;;;;;;10.68;10.38;;;20.60;99.90;;;;;;6175354;23;20203;-81
2023/09/16 20:13:30;;;;;;;10.73;10.43;;;20.60;99.90;;;;;;6176773;23;20212;-81
2023/09/16 20:15:57;;;;;;;10.50;10.20;;;20.50;99.90;;;;;;6176127;23;20230;-80
2023/09/16 20:18:24;;;;;;;10.60;10.30;;;20.40;99.90;;;;;;6175837;23;20212;-80
2023/09/16 20:20:51;;;;;;;10.68;10.38;;;20.40;99.90;;;;;;6175830;23;20208;-80
2023/09/16 20:23:20;;;;;;;10.60;10.30;;;20.40;99.90;;;;;;6177068;23;20208;-80
2023/09/16 20:25:48;;;;;;;10.60;10.30;;;20.30;99.90;;;;;;6176473;23;20208;-80
2023/09/16 20:28:15;;;;;;;10.90;10.60;;;20.30;99.90;;;;;;6175826;23;20200;-81
2023/09/16 20:30:42;;;;;;;10.63;10.32;;;20.20;99.90;;;;;;6174826;23;20203;-81
2023/09/16 20:33:09;;;;;;;10.60;10.30;;;20.20;99.90;;;;;;6177242;23;20675;-81
2023/09/16 20:35:37;;;;;;;10.85;10.55;;;20.20;99.90;;;;;;6179100;23;20204;-81
2023/09/16 20:38:04;;;;;;;10.55;10.25;;;20.10;99.90;;;;;;6178433;23;20239;-81
2023/09/16 20:40:33;;;;;;;10.90;10.60;;;20.10;99.90;;;;;;6179365;23;20200;-81
2023/09/16 20:43:00;;;;;;;10.80;10.50;;;20.00;99.90;;;;;;6177646;23;20200;-81
2023/09/16 20:45:28;;;;;;;11.02;10.73;;;20.00;99.90;;;;;;6176483;23;20212;-81
2023/09/16 20:47:55;;;;;;;11.02;10.73;;;19.90;99.90;;;;;;6174314;23;20315;-81
2023/09/16 20:50:22;;;;;;;10.80;10.50;;;19.90;99.90;;;;;;6173974;23;20204;-80
2023/09/16 20:52:49;;;;;;;10.73;10.43;;;19.80;99.90;;;;;;6174274;23;20203;-81
2023/09/16 20:55:16;;;;;;;10.93;10.63;;;19.70;99.90;;;;;;6174515;23;20192;-81
2023/09/16 20:57:44;;;;;;;10.75;10.45;;;19.60;99.90;;;;;;6174421;23;20283;-81
2023/09/16 21:00:12;;;;;;;10.85;10.55;;;19.50;99.90;;;;;;6175290;23;20204;-80
2023/09/16 21:02:40;;;;;;;10.73;10.43;;;19.50;99.90;;;;;;6173716;23;20207;-81
2023/09/16 21:05:07;;;;;;;10.75;10.45;;;19.40;99.90;;;;;;6174943;23;20205;-82
2023/09/16 21:07:34;;;;;;;10.95;10.65;;;19.40;99.90;;;;;;6176852;23;20251;-81
2023/09/16 21:10:03;;;;;;;11.02;10.73;;;19.30;99.90;;;;;;6180615;23;20204;-81
2023/09/16 21:12:30;;;;;;;11.13;10.82;;;19.30;99.90;;;;;;6179526;23;20212;-81
2023/09/16 21:14:59;;;;;;;11.00;10.70;;;19.20;99.90;;;;;;6176524;23;20204;-80
2023/09/16 21:17:26;;;;;;;10.93;10.63;;;19.20;99.90;;;;;;6175622;23;20192;-81
2023/09/16 21:19:53;;;;;;;11.07;10.77;;;19.10;99.90;;;;;;6175918;23;20207;-80
2023/09/16 21:22:20;;;;;;;11.20;10.90;;;19.10;99.90;;;;;;6175183;23;20200;-81
2023/09/16 21:24:49;;;;;;;10.90;10.60;;;19.00;99.90;;;;;;6175643;23;20216;-80
2023/09/16 21:27:16;;;;;;;10.98;10.68;;;19.00;99.90;;;;;;6175394;23;20215;-80
2023/09/16 21:29:43;;;;;;;11.00;10.70;;;19.00;99.90;;;;;;6181469;23;21019;-80
2023/09/16 21:32:12;;;;;;;10.82;10.52;;;18.90;99.90;;;;;;6184680;23;20219;-79
2023/09/16 21:34:39;;;;;;;11.07;10.77;;;18.90;99.90;;;;;;6178032;23;20212;-80
2023/09/16 21:37:06;;;;;;;10.85;10.55;;;18.90;99.90;;;;;;6176044;23;20214;-80
2023/09/16 21:39:36;;;;;;;10.85;10.55;;;18.80;99.90;;;;;;6173267;23;20227;-80
2023/09/16 21:42:04;;;;;;;10.82;10.52;;;18.80;99.90;;;;;;6170278;23;20275;-79
2023/09/16 21:44:32;;;;;;;10.98;10.68;;;18.80;99.90;;;;;;6175452;23;20220;-80
2023/09/16 21:46:59;;;;;;;11.25;10.90;;;18.80;99.90;;;;;;6170899;23;20282;-81
2023/09/16 21:49:27;;;;;;;11.30;10.90;;;18.70;99.90;;;;;;6175928;23;20260;-81
2023/09/16 21:51:54;;;;;;;11.35;10.95;;;18.70;99.90;;;;;;6175250;23;20196;-81
2023/09/16 21:54:22;;;;;;;11.10;10.80;;;18.60;99.90;;;;;;6175951;23;20280;-81
2023/09/16 21:56:49;;;;;;;11.48;11.07;;;18.60;99.90;;;;;;6176174;23;20207;-80
2023/09/16 21:59:16;;;;;;;11.60;11.20;;;18.50;99.90;;;;;;6175515;23;20192;-81
2023/09/16 22:01:43;;;;;;;11.40;11.00;;;18.40;99.90;;;;;;6179637;23;20205;-81
2023/09/16 22:04:12;;;;;;;11.20;10.90;;;18.30;99.90;;;;;;6175758;23;20283;-80
2023/09/16 22:06:40;;;;;;;11.40;11.00;;;18.30;99.90;;;;;;6175498;23;20220;-81
2023/09/16 22:09:07;;;;;;;11.20;10.90;;;18.20;99.90;;;;;;6175976;23;20215;-81
2023/09/16 22:11:35;;;;;;;11.45;11.05;;;18.20;99.90;;;;;;6175622;23;20196;-81
2023/09/16 22:14:02;;;;;;;11.25;10.93;;;18.10;99.90;;;;;;6182685;23;20192;-81
2023/09/16 22:16:29;;;;;;;11.70;11.30;;;18.10;99.90;;;;;;6180647;23;20195;-81
2023/09/16 22:18:56;;;;;;;11.60;11.20;;;18.10;99.90;;;;;;6178902;23;20211;-80
2023/09/16 22:21:23;;;;;;;11.85;11.45;;;18.00;99.90;;;;;;6176775;23;20200;-81
2023/09/16 22:23:52;;;;;;;11.60;11.20;;;18.00;99.90;;;;;;6176387;23;20192;-81
2023/09/16 22:26:19;;;;;;;11.48;11.07;;;17.90;99.90;;;;;;6175242;23;20212;-81
2023/09/16 22:28:46;;;;;;;11.50;11.10;;;17.90;99.90;;;;;;6176191;23;20219;-81
2023/09/16 22:31:15;;;;;;;11.48;11.07;;;17.80;99.90;;;;;;6177255;23;20208;-81
2023/09/16 22:33:43;;;;;;;11.40;11.00;;;17.80;99.90;;;;;;6176188;23;20208;-81
2023/09/16 22:36:10;;;;;;;11.43;11.02;;;17.80;99.90;;;;;;6175990;23;20200;-81
2023/09/16 22:38:37;;;;;;;11.50;11.10;;;17.80;99.90;;;;;;6187084;23;20269;-81
2023/09/16 22:41:05;;;;;;;11.63;11.23;;;17.80;99.90;;;;;;6179583;23;20200;-82
2023/09/16 22:43:33;;;;;;;11.68;11.27;;;17.70;99.90;;;;;;6176974;23;20192;-81
2023/09/16 22:46:00;;;;;;;11.60;11.20;;;17.70;99.90;;;;;;6171005;23;20239;-81
2023/09/16 22:48:27;;;;;;;11.07;10.77;;;17.70;99.90;;;;;;6170604;23;20247;-82
2023/09/16 22:50:54;;;;;;;11.32;10.93;;;17.60;99.90;;;;;;6171093;23;20208;-81
2023/09/16 22:53:21;;;;;;;11.40;11.00;;;17.60;99.90;;;;;;6171504;23;20223;-81
2023/09/16 22:55:48;;;;;;;11.00;10.70;;;17.60;99.90;;;;;;6173871;23;20212;-81
2023/09/16 22:58:17;;;;;;;11.23;10.88;;;17.50;99.90;;;;;;6173865;23;20200;-81
2023/09/16 23:00:44;;;;;;;11.10;10.80;;;17.50;99.90;;;;;;6174972;23;20267;-82
2023/09/16 23:03:11;;;;;;;11.13;10.82;;;17.50;99.90;;;;;;6174448;23;20208;-81
2023/09/16 23:05:38;;;;;;;11.18;10.88;;;17.50;99.90;;;;;;6175405;23;20218;-81
2023/09/16 23:08:05;;;;;;;11.25;10.95;;;17.50;99.90;;;;;;6175681;23;20212;-81
2023/09/16 23:10:32;;;;;;;11.38;10.98;;;17.50;99.90;;;;;;6174815;23;20248;-81
2023/09/16 23:12:59;;;;;;;11.40;11.00;;;17.40;99.90;;;;;;6175602;23;20207;-81
2023/09/16 23:15:28;;;;;;;11.30;10.93;;;17.50;99.90;;;;;;6176688;23;20203;-80
2023/09/16 23:17:55;;;;;;;11.35;10.95;;;17.40;99.90;;;;;;6176023;23;20232;-80
2023/09/16 23:20:22;;;;;;;11.40;11.00;;;17.40;99.90;;;;;;6176706;23;20208;-80
2023/09/16 23:22:49;;;;;;;11.10;10.80;;;17.40;99.90;;;;;;6176422;23;20211;-80
2023/09/16 23:25:17;;;;;;;11.00;10.70;;;17.40;99.90;;;;;;6180662;23;20216;-80
2023/09/16 23:27:45;;;;;;;11.07;10.77;;;17.40;99.90;;;;;;6185827;23;20207;-81
2023/09/16 23:30:13;;;;;;;11.20;10.90;;;17.30;99.90;;;;;;6187543;23;20200;-80
2023/09/16 23:32:42;;;;;;;11.10;10.80;;;17.30;99.90;;;;;;6186900;23;20184;-82
2023/09/16 23:35:12;;;;;;;11.20;10.90;;;17.30;99.90;;;;;;6184508;23;20191;-80
2023/09/16 23:37:40;;;;;;;10.90;10.60;;;17.20;99.90;;;;;;6185462;23;20203;-80
2023/09/16 23:40:08;;;;;;;11.00;10.70;;;17.20;99.90;;;;;;6186796;23;20203;-80
2023/09/16 23:42:35;;;;;;;11.10;10.80;;;17.20;99.90;;;;;;6186953;23;20192;-80
2023/09/16 23:45:02;;;;;;;11.05;10.75;;;17.10;99.90;;;;;;6189042;23;20188;-81
2023/09/16 23:47:29;;;;;;;10.98;10.68;;;17.10;99.90;;;;;;6187914;23;20188;-82
2023/09/16 23:49:58;;;;;;;11.02;10.73;;;17.00;99.90;;;;;;6186431;23;20188;-81
2023/09/16 23:52:25;;;;;;;10.90;10.60;;;17.10;99.90;;;;;;6186406;23;20196;-81
2023/09/16 23:54:52;;;;;;;10.82;10.52;;;17.00;99.90;;;;;;6185330;23;20244;-81
2023/09/16 23:57:20;;;;;;;10.77;10.48;;;17.00;99.90;;;;;;6182064;23;20205;-81
2023/09/16 23:59:47;;;;;;;10.77;10.48;;;16.90;99.90;;;;;;6183506;23;20193;-81
